Time;durP1;ratioP1;P1;durP2;ratioP2;P2;SDS_P1;SDS_P2;PMS_P1;PMS_P2;Temp;Humidity;BMP_temperature;BMP_pressure;BME280_temperature;BME280_humidity;BME280_pressure;Samples;Min_cycle;Max_cycle;Signal;HPM_P1;HPM_P2
2023/04/14 00:00:24;;;;;;;6.13;5.53;;;;;;;12.47;75.26;98556.91;5078667;28;20279;-52
2023/04/14 00:03:13;;;;;;;8.20;6.10;;;;;;;12.47;75.69;98549.09;5081482;28;20283;-52
2023/04/14 00:06:10;;;;;;;6.77;6.07;;;;;;;12.39;76.49;98556.47;5079533;28;20215;-51
2023/04/14 00:08:55;;;;;;;10.97;6.67;;;;;;;12.35;77.00;98561.81;5081490;28;20210;-52
2023/04/14 00:11:53;;;;;;;7.93;6.50;;;;;;;12.38;77.70;98567.78;5079158;28;20192;-51
2023/04/14 00:17:45;;;;;;;9.60;7.00;;;;;;;12.32;78.70;98561.97;5081474;28;20192;-50
2023/04/14 00:20:38;;;;;;;7.80;6.90;;;;;;;12.26;79.57;98566.66;5081606;28;20235;-51
2023/04/14 00:23:31;;;;;;;7.30;6.27;;;;;;;12.13;79.84;98540.41;5079790;28;21016;-55
2023/04/14 00:26:15;;;;;;;8.23;6.67;;;;;;;12.25;80.41;98567.56;5078055;28;20306;-56
2023/04/14 00:29:01;;;;;;;7.27;6.53;;;;;;;12.00;81.84;98573.16;5078869;28;20270;-51
2023/04/14 00:31:43;;;;;;;8.70;7.27;;;;;;;12.03;81.46;98567.81;5080004;28;20275;-51
2023/04/14 00:34:30;;;;;;;6.90;6.20;;;;;;;11.92;81.89;98570.09;5079142;28;20270;-55
2023/04/14 00:37:23;;;;;;;10.03;7.43;;;;;;;11.86;82.45;98570.38;5081368;28;20187;-57
2023/04/14 00:40:03;;;;;;;7.20;6.23;;;;;;;11.88;82.59;98564.19;5077574;28;20278;-52
2023/04/14 00:42:59;;;;;;;6.83;6.13;;;;;;;11.92;82.03;98564.91;5080846;28;20283;-52
2023/04/14 00:46:00;;;;;;;6.43;5.60;;;;;;;11.98;80.86;98569.78;5079164;28;20224;-53
2023/04/14 00:48:55;;;;;;;5.90;5.40;;;;;;;12.07;78.54;98551.16;5079829;28;20259;-51
2023/04/14 00:51:32;;;;;;;6.17;5.57;;;;;;;12.07;79.16;98564.16;5079069;28;20202;-52
2023/04/14 00:54:33;;;;;;;7.97;5.33;;;;;;;12.14;77.99;98568.13;5079207;28;20222;-52
2023/04/14 00:57:23;;;;;;;5.83;5.30;;;;;;;12.06;78.22;98572.88;5078731;28;20668;-51
2023/04/14 01:00:18;;;;;;;12.93;5.07;;;;;;;12.06;77.53;98572.88;5080068;28;20684;-52
2023/04/14 01:03:11;;;;;;;5.00;4.50;;;;;;;12.07;77.25;98565.91;5079438;28;20199;-51
2023/04/14 01:06:07;;;;;;;5.03;4.63;;;;;;;12.07;76.62;98569.34;5078704;28;20361;-51
2023/04/14 01:09:08;;;;;;;5.40;4.90;;;;;;;12.04;76.50;98559.09;5080473;28;20563;-55
2023/04/14 01:12:07;;;;;;;9.33;4.97;;;;;;;11.88;77.39;98568.56;5081258;28;20625;-55
2023/04/14 01:15:07;;;;;;;5.17;4.67;;;;;;;11.80;77.99;98565.50;5079179;28;20196;-55
2023/04/14 01:18:02;;;;;;;7.87;5.40;;;;;;;11.74;78.45;98566.59;5078665;28;20711;-55
2023/04/14 01:20:59;;;;;;;5.20;4.67;;;;;;;11.73;78.49;98566.69;5078018;28;20199;-56
2023/04/14 01:23:47;;;;;;;5.50;4.70;;;;;;;11.64;78.87;98568.78;5077900;28;20211;-55
2023/04/14 01:27:06;;;;;;;5.10;4.70;;;;;;;11.67;79.08;98569.56;5080540;28;20211;-55
2023/04/14 01:30:17;;;;;;;4.97;4.57;;;;;;;11.74;78.71;98561.41;5080206;28;20199;-56
2023/04/14 01:33:22;;;;;;;5.93;4.50;;;;;;;11.60;79.34;98566.44;5078547;28;20249;-54
2023/04/14 01:36:23;;;;;;;7.50;5.27;;;;;;;11.55;80.02;98565.81;5078878;28;20180;-55
2023/04/14 01:39:14;;;;;;;5.90;5.03;;;;;;;11.59;79.65;98567.34;5079144;28;20191;-50
2023/04/14 01:42:25;;;;;;;5.43;4.77;;;;;;;11.67;79.34;98569.56;5077467;28;20688;-50
2023/04/14 01:45:16;;;;;;;4.47;4.13;;;;;;;11.66;78.86;98566.13;5078299;28;20199;-50
2023/04/14 01:48:30;;;;;;;;;;;;;;;;;;;;;
2023/04/14 01:51:18;;;;;;;12.60;4.97;;;;;;;11.57;79.03;98561.38;5078519;28;20198;-52
2023/04/14 01:54:24;;;;;;;5.40;4.90;;;;;;;11.47;80.11;98549.75;5074869;28;20196;-50
2023/04/14 01:57:24;;;;;;;6.30;5.13;;;;;;;11.52;78.96;98555.53;5078703;28;20200;-52
2023/04/14 02:00:16;;;;;;;9.67;5.47;;;;;;;11.53;79.04;98550.28;5079180;28;20275;-52
2023/04/14 02:03:29;;;;;;;5.47;4.97;;;;;;;11.55;78.57;98545.84;5075313;28;20208;-51
2023/04/14 02:06:13;;;;;;;7.30;4.67;;;;;;;11.58;78.31;98550.91;5079012;28;20220;-51
2023/04/14 02:12:06;;;;;;;5.13;4.67;;;;;;;11.62;77.88;98547.22;5078921;28;20199;-52
2023/04/14 02:18:01;;;;;;;5.77;4.50;;;;;;;11.71;76.40;98532.97;5076554;28;20196;-49
2023/04/14 02:20:58;;;;;;;4.73;4.30;;;;;;;11.69;76.98;98539.16;5077444;28;20656;-51
2023/04/14 02:23:53;;;;;;;7.20;5.20;;;;;;;11.57;77.54;98549.22;5076619;28;20192;-51
2023/04/14 02:29:44;;;;;;;;;;;;;;;;;;;;;
2023/04/14 02:35:48;;;;;;;12.40;5.10;;;;;;;11.72;76.39;98546.81;5076269;28;20199;-54
2023/04/14 02:38:33;;;;;;;11.23;5.43;;;;;;;11.74;75.53;98550.19;5078984;28;20195;-55
2023/04/14 02:41:28;;;;;;;5.70;5.13;;;;;;;11.75;75.84;98550.13;5076998;28;20698;-51
2023/04/14 02:47:37;;;;;;;5.13;4.73;;;;;;;11.60;76.46;98562.09;5075290;28;20731;-52
2023/04/14 02:50:24;;;;;;;6.53;4.87;;;;;;;11.70;75.59;98562.47;5077888;28;20636;-51
2023/04/14 02:53:16;;;;;;;6.47;4.63;;;;;;;11.71;75.90;98560.72;5064150;28;20286;-55
2023/04/14 02:55:57;;;;;;;5.50;5.00;;;;;;;11.57;76.26;98562.22;5076246;28;20253;-50
2023/04/14 02:58:51;;;;;;;5.50;5.00;;;;;;;11.52;76.90;98564.19;5077595;28;20201;-51
2023/04/14 03:01:42;;;;;;;9.47;5.20;;;;;;;11.51;77.66;98566.88;5076062;28;20316;-51
2023/04/14 03:04:28;;;;;;;7.23;5.60;;;;;;;11.48;76.60;98557.47;5078122;28;20595;-55
2023/04/14 03:07:26;;;;;;;6.97;5.60;;;;;;;11.42;78.35;98565.53;5078923;28;20216;-56
2023/04/14 03:10:18;;;;;;;8.00;5.83;;;;;;;11.46;78.38;98576.66;5078533;28;20693;-50
2023/04/14 03:13:17;;;;;;;5.63;5.13;;;;;;;11.44;78.50;98579.31;5077055;28;20196;-54
2023/04/14 03:16:25;;;;;;;7.00;6.00;;;;;;;11.39;78.39;98570.06;5075766;28;20220;-55
2023/04/14 03:19:26;;;;;;;6.73;5.40;;;;;;;11.46;77.43;98569.69;5082443;28;20283;-55
2023/04/14 03:22:21;;;;;;;6.47;5.87;;;;;;;11.45;76.51;98562.81;5082452;28;20192;-55
2023/04/14 03:25:15;;;;;;;7.83;5.87;;;;;;;11.44;77.26;98578.47;5081116;28;20287;-55
2023/04/14 03:28:14;;;;;;;7.93;5.80;;;;;;;11.46;76.75;98567.09;5079380;28;20263;-56
2023/04/14 03:31:13;;;;;;;7.77;6.00;;;;;;;11.37;77.16;98567.53;5080372;28;20603;-55
2023/04/14 03:34:05;;;;;;;8.97;6.67;;;;;;;11.30;77.64;98571.31;5082095;28;20634;-55
2023/04/14 03:36:57;;;;;;;7.27;6.20;;;;;;;11.30;77.50;98573.91;5080914;28;20223;-51
2023/04/14 03:39:54;;;;;;;6.70;5.80;;;;;;;11.23;77.91;98565.56;5077641;28;20200;-55
2023/04/14 03:42:48;;;;;;;11.10;5.87;;;;;;;11.22;77.86;98573.44;5080287;28;20196;-55
2023/04/14 03:45:42;;;;;;;6.00;5.50;;;;;;;11.04;79.05;98566.50;5082244;28;20241;-49
2023/04/14 03:48:45;;;;;;;8.10;4.73;;;;;;;11.10;78.88;98568.81;5080514;28;20192;-55
2023/04/14 03:51:35;;;;;;;8.90;5.43;;;;;;;11.07;79.16;98576.72;5081796;28;20203;-55
2023/04/14 03:54:29;;;;;;;5.97;5.07;;;;;;;10.92;80.00;98575.69;5079713;28;20220;-55
2023/04/14 03:57:11;;;;;;;5.63;5.13;;;;;;;10.89;83.39;98586.19;5078914;28;20310;-55
2023/04/14 03:59:53;;;;;;;5.73;5.13;;;;;;;10.97;81.09;98588.44;5077529;28;20763;-51
2023/04/14 04:02:38;;;;;;;5.27;4.87;;;;;;;11.02;80.67;98600.31;5080887;28;20549;-56
2023/04/14 04:05:15;;;;;;;5.67;5.03;;;;;;;11.04;79.59;98597.66;5079016;28;20715;-55
2023/04/14 04:08:01;;;;;;;5.50;5.00;;;;;;;10.99;79.83;98603.03;5079206;28;20590;-57
2023/04/14 04:10:53;;;;;;;8.83;5.30;;;;;;;11.04;79.53;98606.28;5080354;28;20605;-55
2023/04/14 04:13:31;;;;;;;5.07;4.63;;;;;;;11.16;79.12;98607.50;5078337;28;20732;-55
2023/04/14 04:16:21;;;;;;;5.60;4.80;;;;;;;11.26;78.24;98604.41;5078477;28;20264;-56
2023/04/14 04:18:54;;;;;;;8.40;5.10;;;;;;;11.24;78.57;98597.59;5079758;28;20268;-52
2023/04/14 04:21:28;;;;;;;5.67;5.17;;;;;;;11.36;77.77;98596.19;5079137;28;20211;-52
2023/04/14 04:24:10;;;;;;;5.40;4.90;;;;;;;11.38;76.66;98590.00;5079458;28;20377;-50
2023/04/14 04:26:45;;;;;;;6.70;5.10;;;;;;;11.53;75.52;98591.00;5079203;28;20691;-52
2023/04/14 04:29:15;;;;;;;6.77;5.37;;;;;;;11.91;74.32;98595.25;5079456;28;20218;-52
2023/04/14 04:31:48;;;;;;;6.27;5.00;;;;;;;12.84;69.74;98602.69;5079663;28;20196;-52
2023/04/14 04:34:38;;;;;;;8.03;5.47;;;;;;;13.73;64.72;98600.44;5079903;28;20210;-51
2023/04/14 04:37:33;;;;;;;6.37;5.70;;;;;;;14.42;61.33;98604.34;5079705;28;20192;-55
2023/04/14 04:40:25;;;;;;;6.23;5.23;;;;;;;15.22;58.03;98596.81;5081541;28;20588;-50
2023/04/14 04:43:13;;;;;;;7.70;5.00;;;;;;;16.01;55.63;98611.84;5080914;28;20253;-51
2023/04/14 04:46:16;;;;;;;5.40;4.90;;;;;;;17.02;52.01;98617.22;5079016;28;20254;-51
2023/04/14 04:49:05;;;;;;;6.83;4.90;;;;;;;17.03;51.16;98615.44;5078300;28;20227;-51
2023/04/14 04:51:46;;;;;;;8.67;4.80;;;;;;;16.56;52.04;98611.63;5079001;28;20227;-55
2023/04/14 04:54:51;;;;;;;5.43;4.93;;;;;;;16.49;52.12;98610.34;5079630;28;20220;-56
2023/04/14 04:57:37;;;;;;;5.67;5.17;;;;;;;16.45;51.95;98606.28;5081162;28;20579;-54
2023/04/14 05:00:24;;;;;;;6.10;4.33;;;;;;;16.08;53.07;98599.19;5078864;28;20196;-51
2023/04/14 05:03:23;;;;;;;5.50;5.00;;;;;;;15.69;54.08;98592.97;5087220;28;20202;-55
2023/04/14 05:06:04;;;;;;;7.63;5.27;;;;;;;15.18;54.89;98595.31;5090156;28;20237;-55
2023/04/14 05:09:05;;;;;;;;;;;;;;;;;;;;;
2023/04/14 05:12:03;;;;;;;5.60;5.10;;;;;;;15.06;56.87;98593.44;5091195;28;20203;-51
2023/04/14 05:14:52;;;;;;;4.93;4.50;;;;;;;15.13;56.18;98591.28;5089667;28;20287;-51
2023/04/14 05:20:25;;;;;;;5.77;4.77;;;;;;;14.42;58.51;98575.63;5089741;28;20199;-50
2023/04/14 05:26:16;;;;;;;5.47;4.97;;;;;;;13.58;63.21;98570.00;5089770;28;20712;-51
2023/04/14 05:29:17;;;;;;;5.30;4.90;;;;;;;13.22;65.22;98572.00;5089628;28;20195;-55
2023/04/14 05:32:10;;;;;;;6.63;5.20;;;;;;;12.76;67.52;98558.81;5090646;28;20289;-55
2023/04/14 05:34:45;;;;;;;7.37;5.33;;;;;;;12.66;70.00;98586.25;5090210;28;20668;-56
2023/04/14 05:37:25;;;;;;;5.90;5.40;;;;;;;12.65;70.74;98587.19;5089218;28;20198;-51
2023/04/14 05:40:14;;;;;;;6.93;5.67;;;;;;;12.59;71.76;98577.94;5088795;28;20729;-55
2023/04/14 05:43:01;;;;;;;6.13;5.53;;;;;;;12.58;72.19;98575.41;5070265;28;20231;-56
2023/04/14 05:45:45;;;;;;;5.87;5.37;;;;;;;12.44;72.88;98578.72;5069916;28;20239;-53
2023/04/14 05:48:42;;;;;;;8.50;5.60;;;;;;;12.49;72.71;98578.50;5070277;28;20318;-51
2023/04/14 05:51:36;;;;;;;5.73;5.23;;;;;;;12.52;72.15;98576.59;5070281;28;20202;-55
2023/04/14 05:54:10;;;;;;;6.93;5.77;;;;;;;12.58;72.26;98560.63;5069100;28;20192;-55
2023/04/14 05:57:09;;;;;;;9.23;5.67;;;;;;;12.59;72.24;98545.88;5070063;28;20279;-52
2023/04/14 05:59:58;;;;;;;6.40;5.80;;;;;;;12.61;72.49;98544.88;5069472;28;20195;-55
2023/04/14 06:02:27;;;;;;;7.33;6.53;;;;;;;12.59;72.58;98545.88;5069281;28;20257;-55
2023/04/14 06:05:00;;;;;;;6.70;5.47;;;;;;;12.65;72.44;98550.72;5070024;28;20611;-55
2023/04/14 06:07:46;;;;;;;7.40;6.13;;;;;;;12.78;72.01;98546.56;5069956;28;20312;-55
2023/04/14 06:10:13;;;;;;;6.83;6.23;;;;;;;12.75;72.25;98541.53;5070339;28;20318;-58
2023/04/14 06:12:40;;;;;;;7.97;6.50;;;;;;;12.85;72.08;98547.09;5070216;28;20640;-52
2023/04/14 06:15:08;;;;;;;7.07;6.07;;;;;;;12.93;71.77;98561.38;5069632;28;20249;-52
2023/04/14 06:17:36;;;;;;;7.50;6.20;;;;;;;13.00;71.56;98557.53;5070173;28;20566;-53
2023/04/14 06:20:04;;;;;;;7.70;6.17;;;;;;;13.14;71.24;98556.81;5069931;28;20203;-52
2023/04/14 06:22:31;;;;;;;8.50;6.37;;;;;;;13.18;71.09;98560.94;5069904;28;20675;-52
2023/04/14 06:24:59;;;;;;;8.27;5.40;;;;;;;13.22;71.24;98548.56;5069796;28;20721;-55
2023/04/14 06:27:26;;;;;;;9.90;6.70;;;;;;;13.30;70.89;98542.03;5069682;28;20731;-55
2023/04/14 06:30:04;;;;;;;8.40;6.50;;;;;;;13.36;70.89;98543.44;5069764;28;20243;-56
2023/04/14 06:36:15;;;;;;;7.27;5.43;;;;;;;13.52;70.67;98533.00;5067401;28;20571;-52
2023/04/14 06:39:03;;;;;;;6.33;5.77;;;;;;;13.54;70.68;98547.66;5066948;28;20192;-56
2023/04/14 06:41:39;;;;;;;6.77;6.17;;;;;;;13.60;70.86;98541.22;5069570;28;20691;-51
2023/04/14 06:44:36;;;;;;;9.53;6.20;;;;;;;13.77;70.44;98549.75;5069298;28;20569;-55
2023/04/14 06:47:26;;;;;;;10.63;6.63;;;;;;;14.12;69.21;98552.09;5067778;28;20220;-55
2023/04/14 06:50:23;;;;;;;6.47;5.87;;;;;;;14.41;68.26;98555.66;5068366;28;20196;-55
2023/04/14 06:53:05;;;;;;;8.93;6.40;;;;;;;14.44;67.57;98542.44;5068997;28;20206;-55
2023/04/14 06:58:43;;;;;;;9.93;6.80;;;;;;;15.00;65.70;98535.50;5069808;28;20205;-56
2023/04/14 07:01:32;;;;;;;9.33;6.60;;;;;;;15.18;64.45;98532.56;5067148;28;20606;-54
2023/04/14 07:04:24;;;;;;;8.80;6.57;;;;;;;15.32;63.97;98529.09;5072011;28;20201;-56
2023/04/14 07:06:59;;;;;;;8.33;6.70;;;;;;;15.60;62.97;98509.88;5089358;28;20611;-56
2023/04/14 07:09:31;;;;;;;13.90;7.23;;;;;;;16.13;60.68;98518.59;5087942;28;20245;-56
2023/04/14 07:12:02;;;;;;;7.20;6.43;;;;;;;16.16;60.36;98520.97;5086896;28;20202;-50
2023/04/14 07:14:53;;;;;;;9.67;6.97;;;;;;;16.20;60.59;98514.59;5088602;28;20252;-52
2023/04/14 07:17:48;;;;;;;13.10;7.37;;;;;;;16.32;59.74;98522.47;5087361;28;20581;-51
2023/04/14 07:23:38;;;;;;;6.83;6.23;;;;;;;16.15;60.27;98503.59;5088343;28;20195;-56
2023/04/14 07:26:24;;;;;;;9.50;7.53;;;;;;;15.85;61.54;98491.63;5085356;28;20269;-54
2023/04/14 07:29:02;;;;;;;7.90;7.10;;;;;;;15.57;63.31;98502.25;5085444;28;20230;-52
2023/04/14 07:31:36;;;;;;;8.07;7.17;;;;;;;15.47;64.26;98493.25;5088561;28;20561;-51
2023/04/14 07:34:24;;;;;;;13.47;7.00;;;;;;;15.35;64.92;98491.47;5088076;28;20583;-53
2023/04/14 07:37:17;;;;;;;10.10;7.53;;;;;;;15.14;66.20;98477.97;5088348;28;20593;-53
2023/04/14 07:40:16;;;;;;;10.33;7.67;;;;;;;14.96;67.65;98479.97;5088041;28;20286;-53
2023/04/14 07:43:03;;;;;;;9.03;7.17;;;;;;;14.87;68.82;98480.56;5087965;28;20204;-51
2023/04/14 07:45:48;;;;;;;11.73;7.50;;;;;;;14.90;69.16;98482.97;5088053;28;20195;-55
2023/04/14 07:48:23;;;;;;;9.17;7.73;;;;;;;14.70;70.89;98473.78;5088093;28;20226;-51
2023/04/14 07:51:06;;;;;;;16.67;7.70;;;;;;;14.66;71.76;98469.69;5083165;28;20203;-51
2023/04/14 07:53:42;;;;;;;8.03;7.27;;;;;;;14.64;71.93;98462.88;5068284;28;20671;-54
2023/04/14 07:56:20;;;;;;;8.27;7.47;;;;;;;14.50;73.37;98443.66;5067320;28;20327;-55
2023/04/14 07:59:03;;;;;;;12.00;8.07;;;;;;;14.49;74.34;98441.16;5067541;28;20203;-55
2023/04/14 08:01:48;;;;;;;11.47;8.50;;;;;;;14.53;74.39;98435.66;5068748;28;20198;-51
2023/04/14 08:04:25;;;;;;;9.43;8.43;;;;;;;14.59;75.15;98428.34;5077999;28;20620;-52
2023/04/14 08:07:06;;;;;;;14.43;8.07;;;;;;;14.70;75.11;98431.97;5089748;28;20199;-55
2023/04/14 08:09:49;;;;;;;11.63;7.57;;;;;;;14.79;74.92;98413.09;5091307;28;20231;-55
2023/04/14 08:12:22;;;;;;;11.57;8.13;;;;;;;14.87;74.76;98417.88;5089173;28;20207;-52
2023/04/14 08:15:00;;;;;;;9.27;8.33;;;;;;;14.84;75.07;98429.34;5071847;28;20206;-51
2023/04/14 08:17:37;;;;;;;14.43;7.90;;;;;;;14.71;76.66;98436.28;5070710;28;20217;-55
2023/04/14 08:20:13;;;;;;;9.30;8.40;;;;;;;14.62;77.37;98438.63;5071244;28;20200;-54
2023/04/14 08:23:04;;;;;;;8.73;7.90;;;;;;;14.61;77.60;98434.34;5071930;28;20207;-54
2023/04/14 08:25:58;;;;;;;13.73;8.77;;;;;;;14.67;77.92;98442.59;5070716;28;20192;-55
2023/04/14 08:28:49;;;;;;;11.33;8.23;;;;;;;14.79;77.30;98451.44;5071365;28;20216;-55
2023/04/14 08:31:31;;;;;;;10.40;8.67;;;;;;;14.88;77.02;98461.34;5071139;28;20292;-55
2023/04/14 08:34:14;;;;;;;11.47;8.70;;;;;;;15.03;76.53;98467.34;5071317;28;20204;-52
2023/04/14 08:37:06;;;;;;;17.03;9.97;;;;;;;15.14;75.70;98459.66;5071229;28;20199;-52
2023/04/14 08:39:53;;;;;;;11.97;10.30;;;;;;;15.47;75.02;98474.94;5086541;28;20219;-52
2023/04/14 08:42:50;;;;;;;11.80;8.97;;;;;;;15.67;73.27;98455.38;5090106;28;20226;-51
2023/04/14 08:45:50;;;;;;;8.93;8.07;;;;;;;15.65;72.64;98447.63;5090455;28;20223;-54
2023/04/14 08:48:48;;;;;;;12.90;8.63;;;;;;;16.02;71.87;98451.25;5091101;28;20223;-51
2023/04/14 08:51:38;;;;;;;10.33;8.97;;;;;;;16.84;67.61;98465.63;5090753;28;20219;-50
2023/04/14 08:54:36;;;;;;;11.23;8.37;;;;;;;18.00;62.81;98445.66;5090988;28;20231;-52
2023/04/14 08:57:29;;;;;;;9.73;8.73;;;;;;;19.55;56.61;98435.97;5089203;28;20199;-52
2023/04/14 09:00:20;;;;;;;10.73;8.95;;;;;;;21.41;51.45;98461.25;5088583;28;20199;-52
2023/04/14 09:09:00;;;;;;;9.75;8.75;;;;;;;22.67;46.63;98446.84;5091408;28;20221;-52
2023/04/14 09:12:00;;;;;;;9.52;8.52;;;;;;;22.75;47.06;98447.81;5091192;28;20282;-56
2023/04/14 09:15:00;;;;;;;9.57;8.57;;;;;;;22.77;47.22;98434.44;5091325;28;20199;-51
2023/04/14 09:17:54;;;;;;;10.73;9.20;;;;;;;22.94;46.74;98425.69;5091369;28;20199;-52
2023/04/14 09:20:46;;;;;;;10.90;8.65;;;;;;;22.78;47.32;98426.38;5091003;28;20199;-52
2023/04/14 09:23:32;;;;;;;14.38;9.75;;;;;;;22.30;48.69;98413.31;5089284;28;20320;-54
2023/04/14 09:26:26;;;;;;;15.70;9.93;;;;;;;22.43;49.12;98405.06;5089013;28;20574;-55
2023/04/14 09:29:15;;;;;;;11.50;8.95;;;;;;;23.87;46.58;98409.38;5089851;28;20234;-55
2023/04/14 09:32:10;;;;;;;16.10;9.73;;;;;;;24.72;44.03;98420.16;5088668;28;20191;-52
2023/04/14 09:35:12;;;;;;;10.82;9.30;;;;;;;25.61;42.37;98399.13;5090182;28;20199;-52
2023/04/14 09:37:57;;;;;;;9.57;8.65;;;;;;;25.48;42.18;98398.78;5090419;28;20463;-51
2023/04/14 09:40:58;;;;;;;11.27;8.80;;;;;;;25.82;41.87;98375.53;5087757;28;20199;-52
2023/04/14 09:43:46;;;;;;;12.27;8.50;;;;;;;25.82;42.27;98370.22;5090429;28;20191;-52
2023/04/14 09:46:31;;;;;;;9.43;7.90;;;;;;;26.42;41.27;98372.41;5086842;28;20202;-52
2023/04/14 09:49:18;;;;;;;9.23;8.35;;;;;;;26.86;40.70;98366.56;5089673;28;20235;-52
2023/04/14 09:52:07;;;;;;;11.20;8.30;;;;;;;27.03;40.41;98358.31;5089053;28;20215;-52
2023/04/14 09:54:58;;;;;;;9.77;7.63;;;;;;;27.59;39.88;98366.06;5079473;28;20230;-53
2023/04/14 09:57:45;;;;;;;9.68;7.82;;;;;;;28.30;39.22;98356.72;5069556;28;20242;-52
2023/04/14 10:00:24;;;;;;;8.80;7.93;;;;;;;28.77;37.51;98349.09;5068945;28;20220;-56
2023/04/14 10:03:00;;;;;;;10.80;8.15;;;;;;;27.27;40.31;98344.00;5068662;28;20230;-58
2023/04/14 10:05:44;;;;;;;15.35;7.90;;;;;;;25.78;43.06;98344.97;5068955;28;20248;-57
2023/04/14 10:08:19;;;;;;;11.93;8.57;;;;;;;24.55;46.54;98352.91;5068281;28;20762;-55
2023/04/14 10:11:22;;;;;;;9.57;8.63;;;;;;;23.53;49.46;98355.47;5084173;28;20283;-58
2023/04/14 10:14:12;;;;;;;12.80;8.55;;;;;;;23.08;51.00;98321.97;5089481;28;20203;-56
2023/04/14 10:16:48;;;;;;;11.40;8.32;;;;;;;21.90;54.29;98326.34;5083256;28;20618;-55
2023/04/14 10:19:25;;;;;;;11.68;8.68;;;;;;;21.45;56.36;98320.91;5069045;28;20215;-55
2023/04/14 10:22:05;;;;;;;8.40;7.22;;;;;;;21.19;53.98;98320.66;5068171;28;20257;-55
2023/04/14 10:24:50;;;;;;;12.07;6.60;;;;;;;20.99;54.72;98306.59;5068520;28;20251;-55
2023/04/14 10:27:40;;;;;;;15.38;6.40;;;;;;;20.86;54.97;98310.50;5080918;28;20683;-53
2023/04/14 10:30:35;;;;;;;;;;;;;;;;;;;;;
2023/04/14 10:33:18;;;;;;;8.40;6.88;;;;;;;20.95;54.24;98301.75;5075147;28;20558;-53
2023/04/14 10:36:09;;;;;;;8.40;6.88;;;;;;;20.97;53.41;98324.41;5078146;28;20203;-53
2023/04/14 10:39:05;;;;;;;9.27;6.57;;;;;;;20.97;54.29;98299.81;5076601;28;20245;-52
2023/04/14 10:42:03;;;;;;;7.70;7.00;;;;;;;21.01;55.12;98296.75;5079438;28;20199;-50
2023/04/14 10:45:14;;;;;;;10.60;7.70;;;;;;;20.94;55.81;98298.28;5079087;28;20204;-51
2023/04/14 10:50:48;;;;;;;11.10;7.57;;;;;;;21.04;54.92;98329.94;5067487;28;20230;-51
2023/04/14 10:53:25;;;;;;;10.60;6.70;;;;;;;21.26;53.63;98329.69;5068851;28;20195;-55
2023/04/14 10:56:15;;;;;;;11.32;7.25;;;;;;;21.21;53.27;98329.28;5068282;28;20242;-56
2023/04/14 10:59:05;;;;;;;13.50;7.20;;;;;;;21.42;51.98;98331.75;5069349;28;20195;-53
2023/04/14 11:02:10;;;;;;;9.57;7.20;;;;;;;21.56;52.28;98343.66;5069232;28;20231;-53
2023/04/14 11:05:15;;;;;;;11.98;7.85;;;;;;;21.76;51.53;98352.41;5068908;28;20196;-51
2023/04/14 11:08:00;;;;;;;8.77;7.95;;;;;;;22.03;51.98;98323.41;5069166;28;20200;-52
2023/04/14 11:13:37;;;;;;;9.30;7.50;;;;;;;22.16;50.08;98299.31;5069091;28;20204;-52
2023/04/14 11:16:09;;;;;;;11.65;6.93;;;;;;;22.16;49.97;98307.22;5068535;28;20638;-52
2023/04/14 11:18:57;;;;;;;7.47;6.40;;;;;;;22.37;48.77;98310.47;5069346;28;20196;-57
2023/04/14 11:21:37;;;;;;;9.88;7.10;;;;;;;22.53;48.05;98292.13;5068166;28;20195;-52
2023/04/14 11:24:10;;;;;;;10.25;6.70;;;;;;;22.50;48.30;98287.13;5067236;28;20687;-52
2023/04/14 11:26:47;;;;;;;8.70;6.68;;;;;;;22.47;48.48;98261.00;5068891;28;20195;-52
2023/04/14 11:29:26;;;;;;;7.82;6.07;;;;;;;22.50;48.24;98265.16;5068914;28;20223;-53
2023/04/14 11:32:14;;;;;;;11.10;6.88;;;;;;;22.48;48.13;98267.94;5067206;28;20422;-54
2023/04/14 11:34:50;;;;;;;10.27;6.55;;;;;;;22.70;47.69;98275.44;5068973;28;20188;-52
2023/04/14 11:37:23;;;;;;;7.72;6.60;;;;;;;22.78;47.32;98265.00;5070991;28;20207;-52
2023/04/14 11:40:04;;;;;;;11.90;6.22;;;;;;;22.90;46.38;98256.81;5072182;28;20196;-53
2023/04/14 11:42:36;;;;;;;7.45;5.70;;;;;;;22.98;46.95;98273.59;5072881;28;20253;-52
2023/04/14 11:45:09;;;;;;;5.78;5.28;;;;;;;22.99;47.22;98267.31;5072234;28;20283;-52
2023/04/14 11:48:14;;;;;;;11.07;5.22;;;;;;;22.92;47.71;98270.72;5072837;28;20206;-52
2023/04/14 11:50:51;;;;;;;15.77;6.68;;;;;;;23.11;47.38;98276.69;5071301;28;20773;-52
2023/04/14 11:53:44;;;;;;;6.97;5.05;;;;;;;23.27;47.05;98283.06;5072478;28;20590;-51
2023/04/14 11:56:27;;;;;;;8.73;5.60;;;;;;;23.34;47.25;98282.31;5071621;28;20223;-53
2023/04/14 11:59:25;;;;;;;10.75;5.85;;;;;;;23.52;46.58;98269.88;5072393;28;20709;-53
2023/04/14 12:02:02;;;;;;;10.80;5.82;;;;;;;23.60;46.43;98239.97;5071098;28;20196;-56
2023/04/14 12:04:49;;;;;;;12.07;5.20;;;;;;;23.74;45.99;98268.53;5072424;28;20191;-54
2023/04/14 12:07:30;;;;;;;7.85;5.03;;;;;;;23.95;45.83;98267.28;5071064;28;20206;-54
2023/04/14 12:10:14;;;;;;;7.97;5.28;;;;;;;24.15;45.24;98252.81;5070250;28;20730;-51
2023/04/14 12:13:13;;;;;;;14.75;5.20;;;;;;;24.18;44.26;98234.75;5071107;28;20638;-52
2023/04/14 12:15:55;;;;;;;7.97;4.95;;;;;;;24.14;44.19;98222.00;5072133;28;20295;-54
2023/04/14 12:18:45;;;;;;;10.43;4.60;;;;;;;24.05;43.66;98230.88;5072008;28;20207;-57
2023/04/14 12:21:33;;;;;;;13.38;4.53;;;;;;;24.07;43.38;98229.75;5071895;28;20199;-55
2023/04/14 12:24:06;;;;;;;11.50;5.55;;;;;;;24.14;44.90;98228.13;5071656;28;20567;-55
2023/04/14 12:26:42;;;;;;;10.50;5.40;;;;;;;24.33;44.06;98235.00;5071909;28;20203;-56
2023/04/14 12:29:38;;;;;;;14.52;4.95;;;;;;;24.49;42.94;98226.25;5071935;28;20224;-56
2023/04/14 12:32:36;;;;;;;9.15;4.00;;;;;;;24.56;41.00;98212.16;5071413;28;20208;-55
2023/04/14 12:35:26;;;;;;;12.45;4.60;;;;;;;24.74;41.08;98217.31;5070978;28;20211;-56
2023/04/14 12:38:20;;;;;;;14.05;4.88;;;;;;;24.79;41.11;98212.34;5071817;28;20202;-56
2023/04/14 12:41:01;;;;;;;8.93;4.32;;;;;;;24.77;41.68;98216.16;5071680;28;20196;-55
2023/04/14 12:43:52;;;;;;;8.40;4.50;;;;;;;24.68;41.84;98209.19;5071741;28;20196;-56
2023/04/14 12:46:42;;;;;;;11.88;4.55;;;;;;;24.86;41.16;98200.06;5070033;28;20265;-60
2023/04/14 12:49:43;;;;;;;13.02;4.13;;;;;;;25.05;40.54;98188.31;5069045;28;20679;-57
2023/04/14 12:52:49;;;;;;;7.95;4.40;;;;;;;25.18;39.11;98180.63;5071045;28;20286;-59
2023/04/14 12:55:33;;;;;;;10.35;5.00;;;;;;;25.19;38.86;98168.19;5070289;28;20235;-52
2023/04/14 12:58:29;;;;;;;11.57;4.90;;;;;;;25.17;37.67;98172.88;5071248;28;20668;-54
2023/04/14 13:01:12;;;;;;;11.48;4.35;;;;;;;25.09;37.34;98167.56;5070452;28;20200;-54
2023/04/14 13:04:00;;;;;;;15.63;4.85;;;;;;;25.04;36.99;98167.25;5070490;28;20253;-54
2023/04/14 13:06:45;;;;;;;9.85;4.70;;;;;;;24.96;36.50;98157.44;5069933;28;20253;-56
2023/04/14 13:09:26;;;;;;;11.13;4.32;;;;;;;24.88;36.43;98149.47;5069284;28;20255;-53
2023/04/14 13:12:06;;;;;;;8.50;4.03;;;;;;;24.96;36.50;98154.78;5070343;28;20283;-53
2023/04/14 13:14:58;;;;;;;7.80;3.38;;;;;;;25.06;35.54;98157.25;5070955;28;20196;-56
2023/04/14 13:17:27;;;;;;;11.88;3.38;;;;;;;25.15;34.87;98153.63;5076568;28;20238;-56
2023/04/14 13:20:12;;;;;;;9.50;3.53;;;;;;;25.10;34.75;98140.00;5091283;28;20636;-57
2023/04/14 13:23:05;;;;;;;12.18;4.50;;;;;;;25.18;34.83;98130.19;5090206;28;20202;-56
2023/04/14 13:25:47;;;;;;;10.93;4.57;;;;;;;25.21;35.78;98131.69;5081031;28;20203;-55
2023/04/14 13:28:37;;;;;;;19.92;5.35;;;;;;;25.22;36.41;98142.13;5090878;28;20199;-56
2023/04/14 13:31:36;;;;;;;18.25;5.00;;;;;;;25.20;35.44;98136.16;5090760;28;20195;-55
2023/04/14 13:34:32;;;;;;;11.18;3.60;;;;;;;25.21;34.75;98129.84;5090928;28;20199;-56
2023/04/14 13:37:23;;;;;;;17.95;4.70;;;;;;;25.04;33.50;98127.44;5089053;28;20228;-56
2023/04/14 13:40:01;;;;;;;14.15;4.40;;;;;;;25.14;32.58;98128.88;5090787;28;20202;-52
2023/04/14 13:42:48;;;;;;;16.55;4.18;;;;;;;25.08;33.00;98140.16;5090828;28;20286;-52
2023/04/14 13:45:33;;;;;;;13.82;4.00;;;;;;;25.07;34.24;98141.16;5089286;28;20722;-54
2023/04/14 13:48:08;;;;;;;12.23;4.15;;;;;;;25.00;34.07;98137.53;5090035;28;20245;-56
2023/04/14 13:51:04;;;;;;;;;;;;;;;;;;;;;
2023/04/14 13:54:05;;;;;;;14.52;5.00;;;;;;;24.98;33.94;98150.16;5071293;28;20208;-51
2023/04/14 13:56:51;;;;;;;13.18;4.28;;;;;;;24.94;34.46;98154.97;5069214;28;20231;-51
2023/04/14 13:59:37;;;;;;;15.10;4.78;;;;;;;24.82;34.45;98163.41;5066038;28;20196;-51